sensor_id;sensor_type;location;lat;lon;timestamp;pressure;altitude;pressure_sealevel;temperature;humidity
28312;BME280;15572;48.810;9.148;2022-12-15T00:03:38;96917.03;;;-2.72;100.00
28312;BME280;15572;48.810;9.148;2022-12-15T00:08:54;96914.56;;;-2.74;100.00
28312;BME280;15572;48.810;9.148;2022-12-15T00:14:07;96921.38;;;-2.71;100.00
28312;BME280;15572;48.810;9.148;2022-12-15T00:19:21;96929.03;;;-2.68;100.00
28312;BME280;15572;48.810;9.148;2022-12-15T00:24:37;96943.97;;;-2.67;100.00
28312;BME280;15572;48.810;9.148;2022-12-15T00:29:50;96937.22;;;-2.62;100.00
28312;BME280;15572;48.810;9.148;2022-12-15T00:35:05;96943.63;;;-2.55;100.00
28312;BME280;15572;48.810;9.148;2022-12-15T00:40:20;96941.69;;;-2.52;100.00
28312;BME280;15572;48.810;9.148;2022-12-15T00:45:17;96959.25;;;-2.51;100.00
28312;BME280;15572;48.810;9.148;2022-12-15T00:50:13;96971.50;;;-2.50;100.00
28312;BME280;15572;48.810;9.148;2022-12-15T00:55:41;96970.91;;;-2.44;100.00
28312;BME280;15572;48.810;9.148;2022-12-15T01:00:55;96974.53;;;-2.45;100.00
28312;BME280;15572;48.810;9.148;2022-12-15T01:06:10;96982.66;;;-2.47;100.00
28312;BME280;15572;48.810;9.148;2022-12-15T01:11:26;96971.91;;;-2.45;100.00
28312;BME280;15572;48.810;9.148;2022-12-15T01:16:40;96975.25;;;-2.43;100.00
28312;BME280;15572;48.810;9.148;2022-12-15T01:21:54;96980.41;;;-2.42;100.00
28312;BME280;15572;48.810;9.148;2022-12-15T01:26:51;96999.94;;;-2.43;100.00
28312;BME280;15572;48.810;9.148;2022-12-15T01:31:48;96997.28;;;-2.43;100.00
28312;BME280;15572;48.810;9.148;2022-12-15T01:36:45;97003.44;;;-2.42;100.00
28312;BME280;15572;48.810;9.148;2022-12-15T01:41:41;96993.66;;;-2.42;100.00
28312;BME280;15572;48.810;9.148;2022-12-15T01:46:39;96997.44;;;-2.44;100.00
28312;BME280;15572;48.810;9.148;2022-12-15T01:51:38;97007.19;;;-2.45;100.00
28312;BME280;15572;48.810;9.148;2022-12-15T01:56:37;97006.66;;;-2.48;100.00
28312;BME280;15572;48.810;9.148;2022-12-15T02:01:35;97004.31;;;-2.51;100.00
28312;BME280;15572;48.810;9.148;2022-12-15T02:06:33;97008.06;;;-2.54;100.00
28312;BME280;15572;48.810;9.148;2022-12-15T02:11:54;97007.94;;;-2.52;100.00
28312;BME280;15572;48.810;9.148;2022-12-15T02:17:01;97013.38;;;-2.54;100.00
28312;BME280;15572;48.810;9.148;2022-12-15T02:22:17;97017.69;;;-2.53;100.00
28312;BME280;15572;48.810;9.148;2022-12-15T02:27:34;97029.81;;;-2.50;100.00
28312;BME280;15572;48.810;9.148;2022-12-15T02:32:42;97021.59;;;-2.47;100.00
28312;BME280;15572;48.810;9.148;2022-12-15T02:37:43;97019.59;;;-2.45;100.00
28312;BME280;15572;48.810;9.148;2022-12-15T02:42:43;97017.25;;;-2.48;100.00
28312;BME280;15572;48.810;9.148;2022-12-15T02:47:44;97028.69;;;-2.48;100.00
28312;BME280;15572;48.810;9.148;2022-12-15T02:52:50;97044.03;;;-2.42;100.00
28312;BME280;15572;48.810;9.148;2022-12-15T02:57:53;97032.31;;;-2.49;100.00
28312;BME280;15572;48.810;9.148;2022-12-15T03:02:55;97038.47;;;-2.48;100.00
28312;BME280;15572;48.810;9.148;2022-12-15T03:07:53;97037.63;;;-2.49;100.00
28312;BME280;15572;48.810;9.148;2022-12-15T03:12:49;97040.69;;;-2.44;100.00
28312;BME280;15572;48.810;9.148;2022-12-15T03:17:46;97048.50;;;-2.42;100.00
28312;BME280;15572;48.810;9.148;2022-12-15T03:22:44;97054.19;;;-2.37;100.00
28312;BME280;15572;48.810;9.148;2022-12-15T03:27:40;97053.34;;;-2.38;100.00
28312;BME280;15572;48.810;9.148;2022-12-15T03:32:38;97049.88;;;-2.38;100.00
28312;BME280;15572;48.810;9.148;2022-12-15T03:37:35;97042.91;;;-2.39;100.00
28312;BME280;15572;48.810;9.148;2022-12-15T03:42:32;97055.47;;;-2.41;100.00
28312;BME280;15572;48.810;9.148;2022-12-15T03:47:44;97070.38;;;-2.40;100.00
28312;BME280;15572;48.810;9.148;2022-12-15T03:52:41;97058.38;;;-2.35;100.00
28312;BME280;15572;48.810;9.148;2022-12-15T03:57:39;97078.88;;;-2.27;100.00
28312;BME280;15572;48.810;9.148;2022-12-15T04:02:36;97093.94;;;-2.28;100.00
28312;BME280;15572;48.810;9.148;2022-12-15T04:07:32;97083.47;;;-2.29;100.00
28312;BME280;15572;48.810;9.148;2022-12-15T04:12:29;97087.13;;;-2.30;100.00
28312;BME280;15572;48.810;9.148;2022-12-15T04:17:27;97097.03;;;-2.32;100.00
28312;BME280;15572;48.810;9.148;2022-12-15T04:22:23;97110.69;;;-2.27;100.00
28312;BME280;15572;48.810;9.148;2022-12-15T04:27:20;97091.16;;;-2.26;100.00
28312;BME280;15572;48.810;9.148;2022-12-15T04:32:35;97101.47;;;-2.23;100.00
28312;BME280;15572;48.810;9.148;2022-12-15T04:37:49;97094.22;;;-2.21;100.00
28312;BME280;15572;48.810;9.148;2022-12-15T04:43:03;97097.13;;;-2.24;100.00
28312;BME280;15572;48.810;9.148;2022-12-15T04:48:19;97097.28;;;-2.26;100.00
28312;BME280;15572;48.810;9.148;2022-12-15T04:53:33;97107.19;;;-2.28;100.00
28312;BME280;15572;48.810;9.148;2022-12-15T04:58:47;97105.69;;;-2.30;100.00
28312;BME280;15572;48.810;9.148;2022-12-15T05:04:03;97103.56;;;-2.27;100.00
28312;BME280;15572;48.810;9.148;2022-12-15T05:09:17;97090.84;;;-2.23;100.00
28312;BME280;15572;48.810;9.148;2022-12-15T05:14:31;97095.03;;;-2.21;100.00
28312;BME280;15572;48.810;9.148;2022-12-15T05:19:46;97094.06;;;-2.20;100.00
28312;BME280;15572;48.810;9.148;2022-12-15T05:25:00;97115.13;;;-2.18;100.00
28312;BME280;15572;48.810;9.148;2022-12-15T05:30:14;97116.53;;;-2.14;100.00
28312;BME280;15572;48.810;9.148;2022-12-15T05:35:29;97118.88;;;-2.11;100.00
28312;BME280;15572;48.810;9.148;2022-12-15T05:40:26;97110.78;;;-2.09;100.00
28312;BME280;15572;48.810;9.148;2022-12-15T05:45:22;97118.19;;;-2.13;100.00
28312;BME280;15572;48.810;9.148;2022-12-15T05:50:19;97118.19;;;-2.13;100.00
28312;BME280;15572;48.810;9.148;2022-12-15T05:55:18;97121.09;;;-2.06;100.00
28312;BME280;15572;48.810;9.148;2022-12-15T06:00:15;97120.66;;;-2.02;100.00
28312;BME280;15572;48.810;9.148;2022-12-15T06:05:11;97121.50;;;-2.01;100.00
28312;BME280;15572;48.810;9.148;2022-12-15T06:10:08;97118.44;;;-2.06;100.00
28312;BME280;15572;48.810;9.148;2022-12-15T06:15:08;97139.13;;;-2.10;100.00
28312;BME280;15572;48.810;9.148;2022-12-15T06:20:05;97136.88;;;-2.05;100.00
28312;BME280;15572;48.810;9.148;2022-12-15T06:25:02;97120.81;;;-2.03;100.00
28312;BME280;15572;48.810;9.148;2022-12-15T06:29:59;97143.03;;;-2.04;100.00
28312;BME280;15572;48.810;9.148;2022-12-15T06:40:06;97137.84;;;-2.06;100.00
28312;BME280;15572;48.810;9.148;2022-12-15T06:45:03;97141.34;;;-2.05;100.00
28312;BME280;15572;48.810;9.148;2022-12-15T06:50:00;97139.41;;;-2.03;100.00
28312;BME280;15572;48.810;9.148;2022-12-15T06:54:56;97137.81;;;-1.96;100.00
28312;BME280;15572;48.810;9.148;2022-12-15T06:59:54;97130.28;;;-2.01;100.00
28312;BME280;15572;48.810;9.148;2022-12-15T07:04:51;97128.63;;;-2.02;100.00
28312;BME280;15572;48.810;9.148;2022-12-15T07:09:47;97132.25;;;-2.03;100.00
28312;BME280;15572;48.810;9.148;2022-12-15T07:14:44;97132.00;;;-2.09;100.00
28312;BME280;15572;48.810;9.148;2022-12-15T07:19:41;97133.53;;;-2.07;100.00
28312;BME280;15572;48.810;9.148;2022-12-15T07:24:38;97146.50;;;-2.04;100.00
28312;BME280;15572;48.810;9.148;2022-12-15T07:29:34;97160.44;;;-2.02;100.00
28312;BME280;15572;48.810;9.148;2022-12-15T07:34:31;97152.06;;;-1.97;100.00
28312;BME280;15572;48.810;9.148;2022-12-15T07:39:29;97162.94;;;-1.91;100.00
28312;BME280;15572;48.810;9.148;2022-12-15T07:44:26;97163.34;;;-1.86;100.00
28312;BME280;15572;48.810;9.148;2022-12-15T07:49:23;97150.63;;;-1.82;100.00
28312;BME280;15572;48.810;9.148;2022-12-15T07:54:19;97149.34;;;-1.78;100.00
28312;BME280;15572;48.810;9.148;2022-12-15T07:59:17;97158.28;;;-1.79;100.00
28312;BME280;15572;48.810;9.148;2022-12-15T08:04:14;97174.75;;;-1.76;100.00
28312;BME280;15572;48.810;9.148;2022-12-15T08:09:11;97186.06;;;-1.74;100.00
28312;BME280;15572;48.810;9.148;2022-12-15T08:14:07;97193.47;;;-1.67;100.00
28312;BME280;15572;48.810;9.148;2022-12-15T08:19:06;97197.63;;;-1.55;100.00
28312;BME280;15572;48.810;9.148;2022-12-15T08:24:05;97211.13;;;-1.49;100.00
28312;BME280;15572;48.810;9.148;2022-12-15T08:29:03;97220.88;;;-1.40;100.00
28312;BME280;15572;48.810;9.148;2022-12-15T08:34:01;97216.50;;;-1.31;100.00
28312;BME280;15572;48.810;9.148;2022-12-15T08:39:00;97211.00;;;-1.20;100.00
28312;BME280;15572;48.810;9.148;2022-12-15T08:43:58;97202.16;;;-1.11;100.00
28312;BME280;15572;48.810;9.148;2022-12-15T08:48:55;97212.59;;;-1.00;100.00
28312;BME280;15572;48.810;9.148;2022-12-15T08:53:52;97219.25;;;-0.96;100.00
28312;BME280;15572;48.810;9.148;2022-12-15T08:58:55;97225.22;;;-0.84;100.00
28312;BME280;15572;48.810;9.148;2022-12-15T09:03:53;97238.91;;;-0.79;100.00
28312;BME280;15572;48.810;9.148;2022-12-15T09:08:53;97220.75;;;-0.83;100.00
28312;BME280;15572;48.810;9.148;2022-12-15T09:13:52;97206.63;;;-0.84;100.00
28312;BME280;15572;48.810;9.148;2022-12-15T09:18:50;97213.25;;;-0.70;100.00
28312;BME280;15572;48.810;9.148;2022-12-15T09:23:47;97216.69;;;-0.60;100.00
28312;BME280;15572;48.810;9.148;2022-12-15T09:28:46;97214.94;;;-0.52;100.00
28312;BME280;15572;48.810;9.148;2022-12-15T09:33:44;97212.72;;;-0.56;100.00
28312;BME280;15572;48.810;9.148;2022-12-15T09:38:41;97214.16;;;-0.62;100.00
28312;BME280;15572;48.810;9.148;2022-12-15T09:43:39;97223.06;;;-0.53;100.00
28312;BME280;15572;48.810;9.148;2022-12-15T09:48:39;97211.53;;;-0.44;100.00
28312;BME280;15572;48.810;9.148;2022-12-15T09:53:39;97217.75;;;-0.35;100.00
28312;BME280;15572;48.810;9.148;2022-12-15T09:58:41;97216.63;;;-0.33;100.00
28312;BME280;15572;48.810;9.148;2022-12-15T10:03:46;97217.47;;;-0.32;100.00
28312;BME280;15572;48.810;9.148;2022-12-15T10:08:53;97220.56;;;-0.19;100.00
28312;BME280;15572;48.810;9.148;2022-12-15T10:13:53;97216.31;;;-0.30;100.00
28312;BME280;15572;48.810;9.148;2022-12-15T10:18:58;97218.13;;;-0.30;100.00
28312;BME280;15572;48.810;9.148;2022-12-15T10:23:58;97211.81;;;-0.29;100.00
28312;BME280;15572;48.810;9.148;2022-12-15T10:29:15;97224.06;;;-0.36;100.00
28312;BME280;15572;48.810;9.148;2022-12-15T10:34:23;97214.94;;;-0.34;100.00
28312;BME280;15572;48.810;9.148;2022-12-15T10:39:22;97183.91;;;-0.25;100.00
28312;BME280;15572;48.810;9.148;2022-12-15T10:44:22;97178.91;;;-0.28;100.00
28312;BME280;15572;48.810;9.148;2022-12-15T10:49:21;97173.97;;;-0.41;100.00
28312;BME280;15572;48.810;9.148;2022-12-15T10:54:18;97172.91;;;-0.30;100.00
28312;BME280;15572;48.810;9.148;2022-12-15T10:59:25;97167.66;;;-0.22;100.00
28312;BME280;15572;48.810;9.148;2022-12-15T11:04:26;97156.59;;;-0.10;100.00
28312;BME280;15572;48.810;9.148;2022-12-15T11:09:27;97144.56;;;0.04;100.00
28312;BME280;15572;48.810;9.148;2022-12-15T11:14:42;97145.16;;;0.16;100.00
28312;BME280;15572;48.810;9.148;2022-12-15T11:19:43;97153.19;;;0.24;100.00
28312;BME280;15572;48.810;9.148;2022-12-15T11:24:46;97135.13;;;0.10;100.00
28312;BME280;15572;48.810;9.148;2022-12-15T11:29:56;97133.75;;;0.06;100.00
28312;BME280;15572;48.810;9.148;2022-12-15T11:34:54;97135.59;;;0.05;100.00
28312;BME280;15572;48.810;9.148;2022-12-15T11:40:00;97148.59;;;0.08;100.00
28312;BME280;15572;48.810;9.148;2022-12-15T11:45:06;97143.78;;;0.12;100.00
28312;BME280;15572;48.810;9.148;2022-12-15T11:50:15;97133.38;;;0.00;100.00
28312;BME280;15572;48.810;9.148;2022-12-15T11:55:17;97121.63;;;0.03;100.00
28312;BME280;15572;48.810;9.148;2022-12-15T12:00:19;97099.63;;;0.01;100.00
28312;BME280;15572;48.810;9.148;2022-12-15T12:10:39;97080.13;;;-0.08;100.00
28312;BME280;15572;48.810;9.148;2022-12-15T12:15:46;97068.97;;;-0.11;100.00
28312;BME280;15572;48.810;9.148;2022-12-15T12:20:52;97065.50;;;-0.04;100.00
28312;BME280;15572;48.810;9.148;2022-12-15T12:25:57;97054.25;;;0.03;100.00
28312;BME280;15572;48.810;9.148;2022-12-15T12:30:58;97050.59;;;0.04;100.00
28312;BME280;15572;48.810;9.148;2022-12-15T12:35:56;97059.00;;;0.25;100.00
28312;BME280;15572;48.810;9.148;2022-12-15T12:41:01;97050.31;;;0.57;100.00
28312;BME280;15572;48.810;9.148;2022-12-15T12:46:08;97038.03;;;0.72;100.00
28312;BME280;15572;48.810;9.148;2022-12-15T12:51:18;97037.72;;;0.91;100.00
28312;BME280;15572;48.810;9.148;2022-12-15T12:56:31;97034.41;;;0.97;100.00
28312;BME280;15572;48.810;9.148;2022-12-15T13:01:32;97039.25;;;1.10;100.00
28312;BME280;15572;48.810;9.148;2022-12-15T13:06:57;97032.09;;;1.18;100.00
28312;BME280;15572;48.810;9.148;2022-12-15T13:11:56;97016.44;;;0.99;100.00
28312;BME280;15572;48.810;9.148;2022-12-15T13:16:56;97020.25;;;0.97;100.00
28312;BME280;15572;48.810;9.148;2022-12-15T13:21:58;97008.41;;;0.91;100.00
28312;BME280;15572;48.810;9.148;2022-12-15T13:27:03;97001.06;;;0.77;100.00
28312;BME280;15572;48.810;9.148;2022-12-15T13:32:02;96978.28;;;0.74;100.00
28312;BME280;15572;48.810;9.148;2022-12-15T13:37:00;96963.59;;;0.70;100.00
28312;BME280;15572;48.810;9.148;2022-12-15T13:42:24;96962.09;;;0.60;100.00
28312;BME280;15572;48.810;9.148;2022-12-15T13:47:24;96963.88;;;0.43;100.00
28312;BME280;15572;48.810;9.148;2022-12-15T13:52:26;96967.72;;;0.40;100.00
28312;BME280;15572;48.810;9.148;2022-12-15T13:57:24;96972.84;;;0.34;100.00
28312;BME280;15572;48.810;9.148;2022-12-15T14:02:25;96979.50;;;0.30;100.00
28312;BME280;15572;48.810;9.148;2022-12-15T14:07:22;96961.34;;;0.25;100.00
28312;BME280;15572;48.810;9.148;2022-12-15T14:12:19;96964.50;;;0.21;100.00
28312;BME280;15572;48.810;9.148;2022-12-15T14:17:17;96970.63;;;0.13;100.00
28312;BME280;15572;48.810;9.148;2022-12-15T14:22:24;96970.28;;;0.08;100.00
28312;BME280;15572;48.810;9.148;2022-12-15T14:27:21;96974.97;;;0.14;100.00
28312;BME280;15572;48.810;9.148;2022-12-15T14:32:18;96965.78;;;0.09;100.00
28312;BME280;15572;48.810;9.148;2022-12-15T14:37:16;96975.03;;;-0.04;100.00
28312;BME280;15572;48.810;9.148;2022-12-15T14:42:17;96976.16;;;-0.14;100.00
28312;BME280;15572;48.810;9.148;2022-12-15T14:47:19;96980.63;;;-0.23;100.00
28312;BME280;15572;48.810;9.148;2022-12-15T14:52:25;96979.28;;;-0.27;100.00
28312;BME280;15572;48.810;9.148;2022-12-15T14:57:26;96979.44;;;-0.28;100.00
28312;BME280;15572;48.810;9.148;2022-12-15T15:02:24;96983.91;;;-0.29;100.00
28312;BME280;15572;48.810;9.148;2022-12-15T15:07:21;96982.56;;;-0.33;100.00
28312;BME280;15572;48.810;9.148;2022-12-15T15:12:19;96969.78;;;-0.29;100.00
28312;BME280;15572;48.810;9.148;2022-12-15T15:17:23;96962.63;;;-0.29;100.00
28312;BME280;15572;48.810;9.148;2022-12-15T15:22:33;96974.25;;;-0.30;100.00
28312;BME280;15572;48.810;9.148;2022-12-15T15:27:34;96968.09;;;-0.30;100.00
28312;BME280;15572;48.810;9.148;2022-12-15T15:32:48;96979.28;;;-0.27;100.00
28312;BME280;15572;48.810;9.148;2022-12-15T15:37:45;96984.59;;;-0.27;100.00
28312;BME280;15572;48.810;9.148;2022-12-15T15:42:43;96984.59;;;-0.27;100.00
28312;BME280;15572;48.810;9.148;2022-12-15T15:47:44;96990.72;;;-0.26;100.00
28312;BME280;15572;48.810;9.148;2022-12-15T15:52:42;96989.91;;;-0.27;100.00
28312;BME280;15572;48.810;9.148;2022-12-15T15:57:39;96993.22;;;-0.25;100.00
28312;BME280;15572;48.810;9.148;2022-12-15T16:02:35;96990.72;;;-0.26;100.00
28312;BME280;15572;48.810;9.148;2022-12-15T16:07:33;96975.94;;;-0.29;100.00
28312;BME280;15572;48.810;9.148;2022-12-15T16:12:34;96979.91;;;-0.33;100.00
28312;BME280;15572;48.810;9.148;2022-12-15T16:17:34;96968.44;;;-0.33;100.00
28312;BME280;15572;48.810;9.148;2022-12-15T16:22:30;96967.44;;;-0.32;100.00
28312;BME280;15572;48.810;9.148;2022-12-15T16:27:29;96973.22;;;-0.37;100.00
28312;BME280;15572;48.810;9.148;2022-12-15T16:32:26;96982.34;;;-0.39;100.00
28312;BME280;15572;48.810;9.148;2022-12-15T16:37:25;96964.56;;;-0.39;100.00
28312;BME280;15572;48.810;9.148;2022-12-15T16:42:21;96970.56;;;-0.37;100.00
28312;BME280;15572;48.810;9.148;2022-12-15T16:47:19;96977.88;;;-0.39;100.00
28312;BME280;15572;48.810;9.148;2022-12-15T16:52:19;96972.56;;;-0.39;100.00
28312;BME280;15572;48.810;9.148;2022-12-15T16:57:16;96961.59;;;-0.36;100.00
28312;BME280;15572;48.810;9.148;2022-12-15T17:02:25;96969.56;;;-0.36;100.00
28312;BME280;15572;48.810;9.148;2022-12-15T17:07:23;96955.97;;;-0.33;100.00
28312;BME280;15572;48.810;9.148;2022-12-15T17:12:20;96942.97;;;-0.36;100.00
28312;BME280;15572;48.810;9.148;2022-12-15T17:17:18;96931.34;;;-0.35;100.00
28312;BME280;15572;48.810;9.148;2022-12-15T17:22:16;96932.03;;;-0.33;100.00
28312;BME280;15572;48.810;9.148;2022-12-15T17:27:21;96925.03;;;-0.34;100.00
28312;BME280;15572;48.810;9.148;2022-12-15T17:32:19;96924.06;;;-0.33;100.00
28312;BME280;15572;48.810;9.148;2022-12-15T17:37:16;96921.06;;;-0.30;100.00
28312;BME280;15572;48.810;9.148;2022-12-15T17:42:16;96918.75;;;-0.33;100.00
28312;BME280;15572;48.810;9.148;2022-12-15T17:47:14;96899.59;;;-0.36;100.00
28312;BME280;15572;48.810;9.148;2022-12-15T17:52:23;96906.72;;;-0.37;100.00
28312;BME280;15572;48.810;9.148;2022-12-15T17:57:21;96920.88;;;-0.36;100.00
28312;BME280;15572;48.810;9.148;2022-12-15T18:02:18;96924.69;;;-0.39;100.00
28312;BME280;15572;48.810;9.148;2022-12-15T18:07:16;96912.03;;;-0.37;100.00
28312;BME280;15572;48.810;9.148;2022-12-15T18:12:19;96916.72;;;-0.39;100.00
28312;BME280;15572;48.810;9.148;2022-12-15T18:17:16;96904.25;;;-0.38;100.00
28312;BME280;15572;48.810;9.148;2022-12-15T18:22:16;96915.03;;;-0.40;100.00
28312;BME280;15572;48.810;9.148;2022-12-15T18:27:21;96922.19;;;-0.40;100.00
28312;BME280;15572;48.810;9.148;2022-12-15T18:32:18;96915.03;;;-0.40;100.00
28312;BME280;15572;48.810;9.148;2022-12-15T18:37:18;96915.38;;;-0.43;100.00
28312;BME280;15572;48.810;9.148;2022-12-15T18:42:16;96911.03;;;-0.44;100.00
28312;BME280;15572;48.810;9.148;2022-12-15T18:47:16;96912.03;;;-0.45;100.00
28312;BME280;15572;48.810;9.148;2022-12-15T18:52:15;96912.50;;;-0.50;100.00
28312;BME280;15572;48.810;9.148;2022-12-15T18:57:25;96901.31;;;-0.61;100.00
28312;BME280;15572;48.810;9.148;2022-12-15T19:02:23;96899.78;;;-0.64;100.00
28312;BME280;15572;48.810;9.148;2022-12-15T19:07:21;96895.63;;;-0.66;100.00
28312;BME280;15572;48.810;9.148;2022-12-15T19:12:17;96895.28;;;-0.71;100.00
28312;BME280;15572;48.810;9.148;2022-12-15T19:17:16;96883.13;;;-0.74;100.00
28312;BME280;15572;48.810;9.148;2022-12-15T19:22:31;96875.78;;;-0.80;100.00
28312;BME280;15572;48.810;9.148;2022-12-15T19:27:28;96859.03;;;-0.80;100.00
28312;BME280;15572;48.810;9.148;2022-12-15T19:32:24;96842.53;;;-0.84;100.00
28312;BME280;15572;48.810;9.148;2022-12-15T19:37:23;96843.38;;;-0.83;100.00
28312;BME280;15572;48.810;9.148;2022-12-15T19:42:26;96847.34;;;-0.88;100.00
28312;BME280;15572;48.810;9.148;2022-12-15T19:47:24;96851.97;;;-0.90;100.00
28312;BME280;15572;48.810;9.148;2022-12-15T19:52:21;96856.31;;;-0.89;100.00
28312;BME280;15572;48.810;9.148;2022-12-15T19:57:18;96864.78;;;-0.85;100.00
28312;BME280;15572;48.810;9.148;2022-12-15T20:02:17;96872.09;;;-0.87;100.00
28312;BME280;15572;48.810;9.148;2022-12-15T20:07:16;96881.19;;;-0.90;100.00
28312;BME280;15572;48.810;9.148;2022-12-15T20:12:16;96869.22;;;-0.94;100.00
28312;BME280;15572;48.810;9.148;2022-12-15T20:17:13;96870.91;;;-0.93;100.00
28312;BME280;15572;48.810;9.148;2022-12-15T20:22:13;96865.22;;;-0.98;100.00
28312;BME280;15572;48.810;9.148;2022-12-15T20:27:12;96872.16;;;-1.05;100.00
28312;BME280;15572;48.810;9.148;2022-12-15T20:32:13;96872.53;;;-1.17;100.00
28312;BME280;15572;48.810;9.148;2022-12-15T20:37:15;96877.66;;;-1.24;100.00
28312;BME280;15572;48.810;9.148;2022-12-15T20:42:13;96888.59;;;-1.27;100.00
28312;BME280;15572;48.810;9.148;2022-12-15T20:47:15;96886.53;;;-1.33;100.00
28312;BME280;15572;48.810;9.148;2022-12-15T20:52:27;96895.16;;;-1.39;100.00
28312;BME280;15572;48.810;9.148;2022-12-15T20:57:38;96903.50;;;-1.34;100.00
28312;BME280;15572;48.810;9.148;2022-12-15T21:02:35;96898.09;;;-1.42;100.00
28312;BME280;15572;48.810;9.148;2022-12-15T21:07:32;96893.72;;;-1.51;100.00
28312;BME280;15572;48.810;9.148;2022-12-15T21:12:29;96881.03;;;-1.57;100.00
28312;BME280;15572;48.810;9.148;2022-12-15T21:17:26;96880.66;;;-1.62;100.00
28312;BME280;15572;48.810;9.148;2022-12-15T21:27:45;96878.72;;;-1.60;100.00
28312;BME280;15572;48.810;9.148;2022-12-15T21:32:42;96867.25;;;-1.61;100.00
28312;BME280;15572;48.810;9.148;2022-12-15T21:37:39;96870.75;;;-1.60;100.00
28312;BME280;15572;48.810;9.148;2022-12-15T21:42:37;96866.03;;;-1.66;100.00
28312;BME280;15572;48.810;9.148;2022-12-15T21:47:36;96862.25;;;-1.64;100.00
28312;BME280;15572;48.810;9.148;2022-12-15T21:52:46;96869.69;;;-1.67;100.00
28312;BME280;15572;48.810;9.148;2022-12-15T21:57:44;96866.28;;;-1.78;100.00
28312;BME280;15572;48.810;9.148;2022-12-15T22:02:42;96876.13;;;-1.88;100.00
28312;BME280;15572;48.810;9.148;2022-12-15T22:07:38;96879.38;;;-1.94;100.00
28312;BME280;15572;48.810;9.148;2022-12-15T22:12:36;96885.81;;;-1.96;100.00
28312;BME280;15572;48.810;9.148;2022-12-15T22:17:33;96888.47;;;-1.96;100.00
28312;BME280;15572;48.810;9.148;2022-12-15T22:22:31;96892.28;;;-1.99;100.00
28312;BME280;15572;48.810;9.148;2022-12-15T22:27:31;96895.91;;;-2.00;100.00
28312;BME280;15572;48.810;9.148;2022-12-15T22:32:28;96898.16;;;-2.05;100.00
28312;BME280;15572;48.810;9.148;2022-12-15T22:37:25;96895.72;;;-2.16;100.00
28312;BME280;15572;48.810;9.148;2022-12-15T22:42:23;96902.59;;;-2.23;100.00
28312;BME280;15572;48.810;9.148;2022-12-15T22:47:19;96917.28;;;-2.29;100.00
28312;BME280;15572;48.810;9.148;2022-12-15T22:52:18;96918.41;;;-2.31;100.00
28312;BME280;15572;48.810;9.148;2022-12-15T22:57:19;96908.41;;;-2.37;100.00
28312;BME280;15572;48.810;9.148;2022-12-15T23:02:17;96908.53;;;-2.39;100.00
28312;BME280;15572;48.810;9.148;2022-12-15T23:07:13;96915.25;;;-2.44;100.00
28312;BME280;15572;48.810;9.148;2022-12-15T23:12:10;96911.09;;;-2.47;100.00
28312;BME280;15572;48.810;9.148;2022-12-15T23:17:07;96908.59;;;-2.48;100.00
28312;BME280;15572;48.810;9.148;2022-12-15T23:22:04;96908.06;;;-2.52;100.00
28312;BME280;15572;48.810;9.148;2022-12-15T23:27:01;96911.38;;;-2.50;100.00
28312;BME280;15572;48.810;9.148;2022-12-15T23:31:58;96907.63;;;-2.47;100.00
28312;BME280;15572;48.810;9.148;2022-12-15T23:36:54;96901.34;;;-2.46;100.00
28312;BME280;15572;48.810;9.148;2022-12-15T23:41:52;96908.59;;;-2.48;100.00
28312;BME280;15572;48.810;9.148;2022-12-15T23:46:48;96906.25;;;-2.51;100.00
28312;BME280;15572;48.810;9.148;2022-12-15T23:51:45;96917.44;;;-2.58;100.00
28312;BME280;15572;48.810;9.148;2022-12-15T23:56:42;96912.41;;;-2.61;100.00
